createdAt,value
2018-05-01T00:01:32.059Z,12.94
2018-05-01T00:03:59.566Z,12.91
2018-05-01T00:06:27.058Z,12.87
2018-05-01T00:08:54.560Z,12.82
2018-05-01T00:11:22.046Z,12.82
2018-05-01T00:13:49.551Z,12.79
2018-05-01T00:16:17.032Z,12.83
2018-05-01T00:18:44.543Z,12.82
2018-05-01T00:21:12.030Z,12.80
2018-05-01T00:23:39.542Z,12.80
2018-05-01T00:26:07.060Z,12.83
2018-05-01T00:28:34.554Z,12.83
2018-05-01T00:31:02.073Z,12.84
2018-05-01T00:33:29.582Z,12.85
2018-05-01T00:35:57.098Z,12.82
2018-05-01T00:38:24.585Z,12.78
2018-05-01T00:40:52.096Z,12.72
2018-05-01T00:43:19.578Z,12.65
2018-05-01T00:45:47.090Z,12.63
2018-05-01T00:48:14.582Z,12.60
2018-05-01T00:50:42.107Z,12.51
2018-05-01T00:53:09.597Z,12.49
2018-05-01T00:55:37.109Z,12.44
2018-05-01T00:58:04.598Z,12.42
2018-05-01T01:00:32.097Z,12.45
2018-05-01T01:02:59.582Z,12.45
2018-05-01T01:05:27.089Z,12.43
2018-05-01T01:07:54.573Z,12.40
2018-05-01T01:10:22.090Z,12.33
2018-05-01T01:12:49.578Z,12.30
2018-05-01T01:15:17.105Z,12.28
2018-05-01T01:17:44.599Z,12.26
2018-05-01T01:20:12.113Z,12.26
2018-05-01T01:22:39.602Z,12.21
2018-05-01T01:25:07.096Z,12.20
2018-05-01T01:27:34.618Z,12.15
2018-05-01T01:30:02.115Z,12.16
2018-05-01T01:32:29.626Z,12.17
2018-05-01T01:34:57.532Z,12.19
2018-05-01T01:37:24.510Z,12.20
2018-05-01T01:39:51.463Z,12.19
2018-05-01T01:42:18.434Z,12.17
2018-05-01T01:44:45.389Z,12.16
2018-05-01T01:47:12.357Z,12.18
2018-05-01T01:49:39.310Z,12.20
2018-05-01T01:52:06.285Z,12.23
2018-05-01T01:54:33.233Z,12.25
2018-05-01T01:57:00.211Z,12.29
2018-05-01T01:59:27.159Z,12.33
2018-05-01T02:01:54.132Z,12.38
2018-05-01T02:04:21.085Z,12.39
2018-05-01T02:06:48.063Z,12.41
2018-05-01T02:09:15.009Z,12.42
2018-05-01T02:11:41.982Z,12.41
2018-05-01T02:14:08.941Z,12.41
2018-05-01T02:16:35.930Z,12.42
2018-05-01T02:19:02.885Z,12.43
2018-05-01T02:21:29.839Z,12.45
2018-05-01T02:23:56.812Z,12.44
2018-05-01T02:26:23.758Z,12.44
2018-05-01T02:28:50.933Z,12.40
2018-05-01T02:31:17.881Z,12.38
2018-05-01T02:33:44.845Z,12.36
2018-05-01T02:36:11.793Z,12.35
2018-05-01T02:38:38.779Z,12.33
2018-05-01T02:41:05.740Z,12.37
2018-05-01T02:43:32.725Z,12.35
2018-05-01T02:45:59.681Z,12.37
2018-05-01T02:48:26.658Z,12.37
2018-05-01T02:50:53.616Z,12.38
2018-05-01T02:53:20.595Z,12.37
2018-05-01T02:55:47.562Z,12.35
2018-05-01T02:58:14.544Z,12.34
2018-05-01T03:00:41.492Z,12.32
2018-05-01T03:03:08.467Z,12.36
2018-05-01T03:05:35.429Z,12.36
2018-05-01T03:08:02.403Z,12.36
2018-05-01T03:10:29.383Z,12.36
2018-05-01T03:12:56.366Z,12.36
2018-05-01T03:15:23.318Z,12.38
2018-05-01T03:17:50.281Z,12.38
2018-05-01T03:20:17.249Z,12.35
2018-05-01T03:22:44.198Z,12.36
2018-05-01T03:25:11.173Z,12.38
2018-05-01T03:27:38.120Z,12.38
2018-05-01T03:30:05.095Z,12.39
2018-05-01T03:32:32.037Z,12.39
2018-05-01T03:34:59.015Z,12.39
2018-05-01T03:37:25.970Z,12.36
2018-05-01T03:39:52.953Z,12.37
2018-05-01T03:42:19.906Z,12.36
2018-05-01T03:44:46.878Z,12.36
2018-05-01T03:47:13.829Z,12.34
2018-05-01T03:49:40.811Z,12.35
2018-05-01T03:52:07.772Z,12.39
2018-05-01T03:54:34.758Z,12.41
2018-05-01T03:57:01.705Z,12.42
2018-05-01T03:59:28.674Z,12.40
2018-05-01T04:01:55.623Z,12.40
2018-05-01T04:04:22.598Z,12.39
2018-05-01T04:06:49.552Z,12.38
2018-05-01T04:09:17.382Z,12.41
2018-05-01T04:11:44.358Z,12.42
2018-05-01T04:14:11.316Z,12.42
2018-05-01T04:16:38.295Z,12.42
2018-05-01T04:19:05.247Z,12.41
2018-05-01T04:21:32.257Z,12.42
2018-05-01T04:23:59.203Z,12.39
2018-05-01T04:26:26.170Z,12.44
2018-05-01T04:28:53.286Z,12.50
2018-05-01T04:31:20.260Z,12.54
2018-05-01T04:33:47.216Z,12.56
2018-05-01T04:36:14.194Z,12.60
2018-05-01T04:38:41.146Z,12.60
2018-05-01T04:41:08.108Z,12.65
2018-05-01T04:43:35.053Z,12.69
2018-05-01T04:46:02.037Z,12.72
2018-05-01T04:48:28.988Z,12.77
2018-05-01T04:50:55.964Z,12.73
2018-05-01T04:53:22.921Z,12.73
2018-05-01T04:55:49.898Z,12.71
2018-05-01T04:58:16.857Z,12.75
2018-05-01T05:00:43.828Z,12.76
2018-05-01T05:03:10.783Z,12.79
2018-05-01T05:05:37.750Z,12.80
2018-05-01T05:08:04.734Z,12.80
2018-05-01T05:10:31.697Z,12.80
2018-05-01T05:12:58.675Z,12.80
2018-05-01T05:15:25.684Z,12.85
2018-05-01T05:17:52.649Z,12.83
2018-05-01T05:20:19.595Z,12.82
2018-05-01T05:22:46.580Z,12.77
2018-05-01T05:25:13.529Z,12.73
2018-05-01T05:27:40.506Z,12.73
2018-05-01T05:30:07.454Z,12.70
2018-05-01T05:32:34.436Z,12.71
2018-05-01T05:35:01.386Z,12.72
2018-05-01T05:37:28.365Z,12.69
2018-05-01T05:39:55.308Z,12.75
2018-05-01T05:42:22.282Z,12.73
2018-05-01T05:44:49.230Z,12.76
2018-05-01T05:47:16.197Z,12.79
2018-05-01T05:49:43.145Z,12.80
2018-05-01T05:52:10.114Z,12.87
2018-05-01T05:54:37.064Z,12.87
2018-05-01T05:57:04.058Z,12.85
2018-05-01T05:59:31.015Z,12.89
2018-05-01T06:01:57.961Z,12.99
2018-05-01T06:04:24.955Z,13.03
2018-05-01T06:06:51.933Z,13.06
2018-05-01T06:09:18.911Z,13.15
2018-05-01T06:11:45.861Z,13.22
2018-05-01T06:14:12.839Z,13.25
2018-05-01T06:16:39.795Z,13.32
2018-05-01T06:19:06.765Z,13.33
2018-05-01T06:21:33.724Z,13.32
2018-05-01T06:24:00.715Z,13.44
2018-05-01T06:26:27.669Z,13.55
2018-05-01T06:28:54.650Z,13.82
2018-05-01T06:31:21.699Z,13.92
2018-05-01T06:33:48.606Z,14.13
2018-05-01T06:36:15.558Z,14.21
2018-05-01T06:38:42.524Z,14.45
2018-05-01T06:41:09.472Z,14.30
2018-05-01T06:43:36.451Z,14.05
2018-05-01T06:46:03.406Z,13.98
2018-05-01T06:48:30.383Z,13.95
2018-05-01T06:50:57.366Z,14.11
2018-05-01T06:53:24.322Z,14.12
2018-05-01T06:55:51.310Z,14.16
2018-05-01T06:58:18.265Z,13.94
2018-05-01T07:00:45.239Z,13.84
2018-05-01T07:03:12.198Z,13.77
2018-05-01T07:05:39.178Z,13.89
2018-05-01T07:08:06.134Z,13.99
2018-05-01T07:10:34.245Z,14.14
2018-05-01T07:13:01.197Z,14.33
2018-05-01T07:15:28.171Z,14.50
2018-05-01T07:17:55.123Z,14.56
2018-05-01T07:20:22.093Z,14.49
2018-05-01T07:22:49.053Z,14.72
2018-05-01T07:25:16.051Z,14.72
2018-05-01T07:27:43.016Z,15.05
2018-05-01T07:30:10.027Z,15.09
2018-05-01T07:32:36.973Z,14.95
2018-05-01T07:35:03.952Z,15.21
2018-05-01T07:37:30.921Z,15.17
2018-05-01T07:39:58.573Z,15.30
2018-05-01T07:42:25.523Z,15.42
2018-05-01T07:44:52.602Z,15.43
2018-05-01T07:47:19.550Z,15.57
2018-05-01T07:49:46.516Z,15.35
2018-05-01T07:52:13.497Z,15.01
2018-05-01T07:54:40.457Z,14.72
2018-05-01T07:57:07.439Z,14.76
2018-05-01T07:59:34.389Z,15.29
2018-05-01T08:02:01.371Z,15.59
2018-05-01T08:04:28.324Z,16.20
2018-05-01T08:06:55.313Z,16.29
2018-05-01T08:09:22.276Z,16.57
2018-05-01T08:11:50.752Z,16.47
2018-05-01T08:14:16.227Z,16.29
2018-05-01T08:16:43.207Z,16.19
2018-05-01T08:19:10.161Z,16.22
2018-05-01T08:21:37.129Z,16.19
2018-05-01T08:24:04.089Z,16.35
2018-05-01T08:26:31.064Z,16.35
2018-05-01T08:28:58.026Z,16.68
2018-05-01T08:31:24.997Z,16.40
2018-05-01T08:33:51.953Z,16.67
2018-05-01T08:36:18.940Z,16.87
2018-05-01T08:38:45.897Z,17.31
2018-05-01T08:41:12.882Z,18.07
2018-05-01T08:43:39.837Z,18.68
2018-05-01T08:46:06.792Z,19.32
2018-05-01T08:48:33.764Z,19.96
2018-05-01T08:51:00.726Z,21.41
2018-05-01T08:53:27.702Z,25.89
2018-05-01T08:55:54.655Z,27.88
2018-05-01T08:58:21.626Z,28.57
2018-05-01T09:00:48.582Z,26.25
2018-05-01T09:03:15.556Z,24.78
2018-05-01T09:05:42.511Z,23.39
2018-05-01T09:08:09.490Z,22.03
2018-05-01T09:10:36.452Z,21.20
2018-05-01T09:13:03.438Z,21.23
2018-05-01T09:15:30.393Z,21.21
2018-05-01T09:17:57.489Z,20.62
2018-05-01T09:20:24.349Z,20.24
2018-05-01T09:22:51.323Z,19.91
2018-05-01T09:25:18.270Z,20.21
2018-05-01T09:27:45.238Z,20.06
2018-05-01T09:30:12.185Z,19.80
2018-05-01T09:32:39.162Z,19.62
2018-05-01T09:35:06.115Z,19.20
2018-05-01T09:37:33.114Z,18.39
2018-05-01T09:40:00.070Z,18.22
2018-05-01T09:42:27.042Z,17.86
2018-05-01T09:44:54.016Z,17.75
2018-05-01T09:47:20.965Z,17.81
2018-05-01T09:49:47.935Z,17.63
2018-05-01T09:52:15.436Z,17.59
2018-05-01T09:54:43.054Z,17.35
2018-05-01T09:57:10.555Z,17.34
2018-05-01T09:59:38.070Z,17.02
2018-05-01T10:02:05.571Z,16.99
2018-05-01T10:04:33.119Z,17.11
2018-05-01T10:07:00.609Z,17.36
2018-05-01T10:09:28.126Z,17.32
2018-05-01T10:11:55.617Z,17.51
2018-05-01T10:14:23.125Z,17.62
2018-05-01T10:16:50.614Z,17.57
2018-05-01T10:19:18.125Z,17.64
2018-05-01T10:21:45.605Z,17.77
2018-05-01T10:24:13.113Z,17.91
2018-05-01T10:26:40.602Z,18.12
2018-05-01T10:29:08.164Z,18.17
2018-05-01T10:31:35.655Z,18.37
2018-05-01T10:34:03.190Z,18.62
2018-05-01T10:36:30.701Z,19.57
2018-05-01T10:38:58.243Z,19.37
2018-05-01T10:41:25.722Z,19.47
2018-05-01T10:43:53.217Z,18.95
2018-05-01T10:46:20.742Z,18.72
2018-05-01T10:48:48.238Z,18.66
2018-05-01T10:51:15.758Z,18.96
2018-05-01T10:53:43.290Z,19.05
2018-05-01T10:56:10.808Z,18.99
2018-05-01T10:58:38.292Z,18.93
2018-05-01T11:01:05.801Z,19.47
2018-05-01T11:03:33.289Z,19.83
2018-05-01T11:06:00.794Z,19.34
2018-05-01T11:08:28.289Z,19.09
2018-05-01T11:10:55.806Z,18.96
2018-05-01T11:13:23.373Z,18.40
2018-05-01T11:15:50.902Z,18.29
2018-05-01T11:18:18.432Z,18.37
2018-05-01T11:20:45.944Z,18.11
2018-05-01T11:23:13.440Z,18.06
2018-05-01T11:25:41.908Z,17.81
2018-05-01T11:28:09.403Z,17.66
2018-05-01T11:30:37.087Z,17.62
2018-05-01T11:33:04.610Z,17.75
2018-05-01T11:35:32.114Z,17.55
2018-05-01T11:37:59.635Z,17.44
2018-05-01T11:40:27.131Z,17.54
2018-05-01T11:42:54.658Z,17.77
2018-05-01T11:45:22.154Z,18.06
2018-05-01T11:47:49.657Z,18.42
2018-05-01T11:50:17.154Z,18.71
2018-05-01T11:52:44.671Z,19.92
2018-05-01T11:55:12.166Z,20.33
2018-05-01T11:57:39.681Z,21.77
2018-05-01T12:00:07.170Z,21.59
2018-05-01T12:02:34.732Z,20.07
2018-05-01T12:05:02.220Z,19.52
2018-05-01T12:07:29.746Z,19.23
2018-05-01T12:09:57.229Z,18.96
2018-05-01T12:12:24.738Z,18.26
2018-05-01T12:14:52.223Z,18.04
2018-05-01T12:17:19.725Z,17.96
2018-05-01T12:19:47.224Z,17.69
2018-05-01T12:22:14.732Z,17.64
2018-05-01T12:24:42.222Z,17.89
2018-05-01T12:27:09.705Z,18.43
2018-05-01T12:29:37.218Z,18.72
2018-05-01T12:32:04.727Z,18.63
2018-05-01T12:34:32.244Z,18.80
2018-05-01T12:36:59.807Z,18.91
2018-05-01T12:39:27.265Z,18.62
2018-05-01T12:41:54.754Z,18.76
2018-05-01T12:44:22.270Z,18.63
2018-05-01T12:46:49.758Z,18.08
2018-05-01T12:49:17.270Z,18.06
2018-05-01T12:51:44.768Z,18.44
2018-05-01T12:54:12.282Z,18.91
2018-05-01T12:56:39.769Z,19.15
2018-05-01T12:59:07.307Z,19.12
2018-05-01T13:01:34.798Z,18.61
2018-05-01T13:04:02.306Z,18.55
2018-05-01T13:06:29.808Z,18.48
2018-05-01T13:08:57.313Z,18.52
2018-05-01T13:11:24.809Z,18.80
2018-05-01T13:13:52.326Z,18.87
2018-05-01T13:16:19.827Z,19.03
2018-05-01T13:18:47.333Z,18.96
2018-05-01T13:21:14.886Z,18.91
2018-05-01T13:23:42.374Z,19.19
2018-05-01T13:26:09.878Z,19.23
2018-05-01T13:28:37.357Z,19.28
2018-05-01T13:31:04.877Z,19.43
2018-05-01T13:33:32.386Z,19.41
2018-05-01T13:35:59.898Z,19.35
2018-05-01T13:38:27.391Z,19.16
2018-05-01T13:40:54.906Z,19.34
2018-05-01T13:43:22.398Z,19.30
2018-05-01T13:45:49.930Z,19.41
2018-05-01T13:48:17.418Z,19.66
2018-05-01T13:50:44.926Z,19.61
2018-05-01T13:53:12.409Z,19.67
2018-05-01T13:55:39.915Z,19.61
2018-05-01T13:58:07.407Z,19.67
2018-05-01T14:00:34.974Z,19.13
2018-05-01T14:03:02.447Z,19.01
2018-05-01T14:05:29.950Z,19.08
2018-05-01T14:07:57.440Z,18.96
2018-05-01T14:10:24.964Z,19.17
2018-05-01T14:12:52.457Z,19.33
2018-05-01T14:15:19.936Z,19.42
2018-05-01T14:17:47.442Z,18.80
2018-05-01T14:20:14.930Z,19.52
2018-05-01T14:22:42.513Z,19.19
2018-05-01T14:25:10.009Z,18.93
2018-05-01T14:27:38.421Z,19.15
2018-05-01T14:30:05.918Z,19.64
2018-05-01T14:32:33.421Z,19.45
2018-05-01T14:35:00.911Z,19.19
2018-05-01T14:37:29.085Z,19.27
2018-05-01T14:39:56.586Z,19.38
2018-05-01T14:42:24.118Z,19.36
2018-05-01T14:44:51.601Z,19.68
2018-05-01T14:47:19.106Z,19.68
2018-05-01T14:49:46.591Z,19.52
2018-05-01T14:52:14.100Z,19.17
2018-05-01T14:54:41.586Z,18.93
2018-05-01T14:57:09.094Z,19.01
2018-05-01T14:59:36.641Z,18.99
2018-05-01T15:02:04.151Z,18.99
2018-05-01T15:04:31.634Z,19.15
2018-05-01T15:06:59.138Z,19.30
2018-05-01T15:09:26.693Z,19.39
2018-05-01T15:11:54.194Z,19.44
2018-05-01T15:14:21.710Z,19.45
2018-05-01T15:16:49.203Z,19.50
2018-05-01T15:19:16.792Z,19.40
2018-05-01T15:21:44.247Z,19.12
2018-05-01T15:24:11.753Z,18.79
2018-05-01T15:26:39.237Z,18.63
2018-05-01T15:29:06.747Z,18.44
2018-05-01T15:31:34.229Z,18.20
2018-05-01T15:34:01.747Z,18.08
2018-05-01T15:36:29.241Z,18.16
2018-05-01T15:38:56.750Z,18.12
2018-05-01T15:41:24.246Z,18.15
2018-05-01T15:43:51.756Z,18.11
2018-05-01T15:46:19.250Z,18.24
2018-05-01T15:48:46.765Z,18.26
2018-05-01T15:51:14.261Z,18.18
2018-05-01T15:53:41.780Z,18.05
2018-05-01T15:56:09.275Z,17.85
2018-05-01T15:58:36.790Z,17.59
2018-05-01T16:01:04.289Z,17.40
2018-05-01T16:03:31.813Z,17.51
2018-05-01T16:05:59.305Z,17.41
2018-05-01T16:08:26.793Z,17.38
2018-05-01T16:10:54.294Z,17.42
2018-05-01T16:13:21.785Z,17.39
2018-05-01T16:15:49.296Z,17.35
2018-05-01T16:18:16.800Z,17.36
2018-05-01T16:20:44.373Z,17.30
2018-05-01T16:23:11.862Z,17.22
2018-05-01T16:25:39.381Z,17.14
2018-05-01T16:28:06.865Z,17.13
2018-05-01T16:30:34.478Z,17.18
2018-05-01T16:33:01.973Z,17.13
2018-05-01T16:35:29.513Z,17.12
2018-05-01T16:37:57.010Z,17.08
2018-05-01T16:40:24.603Z,17.03
2018-05-01T16:42:52.037Z,17.03
2018-05-01T16:45:19.545Z,16.84
2018-05-01T16:47:47.036Z,16.82
2018-05-01T16:50:14.561Z,16.67
2018-05-01T16:52:42.050Z,16.68
2018-05-01T16:55:09.567Z,16.63
2018-05-01T16:57:37.067Z,16.57
2018-05-01T17:00:04.586Z,16.59
2018-05-01T17:02:32.077Z,16.63
2018-05-01T17:04:59.607Z,16.62
2018-05-01T17:07:27.121Z,16.57
2018-05-01T17:09:54.618Z,16.54
2018-05-01T17:12:22.134Z,16.49
2018-05-01T17:14:49.623Z,16.42
2018-05-01T17:17:17.140Z,16.34
2018-05-01T17:19:44.633Z,16.27
2018-05-01T17:22:12.161Z,16.15
2018-05-01T17:24:39.672Z,16.07
2018-05-01T17:27:07.522Z,15.97
2018-05-01T17:29:35.014Z,15.83
2018-05-01T17:32:02.533Z,15.81
2018-05-01T17:34:30.025Z,15.79
2018-05-01T17:36:57.542Z,15.74
2018-05-01T17:39:25.038Z,15.63
2018-05-01T17:41:52.549Z,15.58
2018-05-01T17:44:20.042Z,15.53
2018-05-01T17:46:47.545Z,15.50
2018-05-01T17:49:15.030Z,15.47
2018-05-01T17:51:42.550Z,15.42
2018-05-01T17:54:10.034Z,15.36
2018-05-01T17:56:37.541Z,15.29
2018-05-01T17:59:06.065Z,15.25
2018-05-01T18:01:33.558Z,15.18
2018-05-01T18:04:01.102Z,15.14
2018-05-01T18:06:28.612Z,15.08
2018-05-01T18:08:56.689Z,15.00
2018-05-01T18:11:24.444Z,14.88
2018-05-01T18:13:52.114Z,14.79
2018-05-01T18:16:19.755Z,14.71
2018-05-01T18:18:47.445Z,14.62
2018-05-01T18:21:15.087Z,14.53
2018-05-01T18:23:42.870Z,14.45
2018-05-01T18:26:10.484Z,14.36
2018-05-01T18:28:38.233Z,14.25
2018-05-01T18:31:05.884Z,14.19
2018-05-01T18:33:33.577Z,14.11
2018-05-01T18:36:01.269Z,14.04
2018-05-01T18:38:29.056Z,13.95
2018-05-01T18:40:56.676Z,13.86
2018-05-01T18:43:24.422Z,13.77
2018-05-01T18:45:52.071Z,13.67
2018-05-01T18:48:19.752Z,13.59
2018-05-01T18:50:47.289Z,13.51
2018-05-01T18:53:14.807Z,13.43
2018-05-01T18:55:42.297Z,13.33
2018-05-01T18:58:09.783Z,13.28
2018-05-01T19:00:37.299Z,13.23
2018-05-01T19:03:04.789Z,13.15
2018-05-01T19:05:32.293Z,13.13
2018-05-01T19:07:59.790Z,13.03
2018-05-01T19:10:27.362Z,12.92
2018-05-01T19:12:54.825Z,12.84
2018-05-01T19:15:22.342Z,12.78
2018-05-01T19:17:49.834Z,12.77
2018-05-01T19:20:17.346Z,12.70
2018-05-01T19:22:44.838Z,12.61
2018-05-01T19:25:12.345Z,12.53
2018-05-01T19:27:39.833Z,12.47
2018-05-01T19:30:07.336Z,12.42
2018-05-01T19:32:34.831Z,12.35
2018-05-01T19:35:02.404Z,12.26
2018-05-01T19:37:29.895Z,12.18
2018-05-01T19:39:57.406Z,12.12
2018-05-01T19:42:25.828Z,12.08
2018-05-01T19:44:53.351Z,12.04
2018-05-01T19:47:20.913Z,11.98
2018-05-01T19:49:48.421Z,11.96
2018-05-01T19:52:15.934Z,11.92
2018-05-01T19:54:43.422Z,11.89
2018-05-01T19:57:11.937Z,11.82
2018-05-01T19:59:39.434Z,11.75
2018-05-01T20:02:06.938Z,11.71
2018-05-01T20:04:34.425Z,11.62
2018-05-01T20:07:01.936Z,11.56
2018-05-01T20:09:29.432Z,11.56
2018-05-01T20:11:56.941Z,11.53
2018-05-01T20:14:24.428Z,11.42
2018-05-01T20:16:51.946Z,11.36
2018-05-01T20:19:19.484Z,11.30
2018-05-01T20:21:47.002Z,11.24
2018-05-01T20:24:14.511Z,11.21
2018-05-01T20:26:42.038Z,11.10
2018-05-01T20:29:09.520Z,11.07
2018-05-01T20:31:37.085Z,11.00
2018-05-01T20:34:04.621Z,11.04
2018-05-01T20:36:32.801Z,11.02
2018-05-01T20:39:00.314Z,10.99
2018-05-01T20:41:27.831Z,10.96
2018-05-01T20:43:55.313Z,10.92
2018-05-01T20:46:22.819Z,10.85
2018-05-01T20:48:50.322Z,10.72
2018-05-01T20:51:17.805Z,10.80
2018-05-01T20:53:45.313Z,10.77
2018-05-01T20:56:12.801Z,10.74
2018-05-01T20:58:40.314Z,10.75
2018-05-01T21:01:07.809Z,10.73
2018-05-01T21:03:35.322Z,10.73
2018-05-01T21:06:02.809Z,10.69
2018-05-01T21:08:30.323Z,10.65
2018-05-01T21:10:57.823Z,10.58
2018-05-01T21:13:25.341Z,10.55
2018-05-01T21:15:52.829Z,10.44
2018-05-01T21:18:20.333Z,10.43
2018-05-01T21:20:47.823Z,10.40
2018-05-01T21:23:15.338Z,10.33
2018-05-01T21:25:42.850Z,10.30
2018-05-01T21:28:10.353Z,9.26
2018-05-01T21:30:37.840Z,10.20
2018-05-01T21:33:05.359Z,10.15
2018-05-01T21:35:32.843Z,10.11
2018-05-01T21:38:00.377Z,10.06
2018-05-01T21:40:27.890Z,10.05
2018-05-01T21:42:55.444Z,10.00
2018-05-01T21:45:22.905Z,9.96
2018-05-01T21:47:50.472Z,9.90
2018-05-01T21:50:19.006Z,9.78
2018-05-01T21:52:46.506Z,9.75
2018-05-01T21:55:14.019Z,9.74
2018-05-01T21:57:41.505Z,9.78
2018-05-01T22:00:09.005Z,9.82
2018-05-01T22:02:36.496Z,9.81
2018-05-01T22:05:04.014Z,9.77
2018-05-01T22:07:31.813Z,9.83
2018-05-01T22:10:00.294Z,9.75
2018-05-01T22:12:27.834Z,9.80
2018-05-01T22:14:55.337Z,9.74
2018-05-01T22:17:22.825Z,9.70
2018-05-01T22:19:50.331Z,9.65
2018-05-01T22:22:17.811Z,9.61
2018-05-01T22:24:45.323Z,9.58
2018-05-01T22:27:12.821Z,9.57
2018-05-01T22:29:40.386Z,9.58
2018-05-01T22:32:07.877Z,9.55
2018-05-01T22:34:35.385Z,9.56
2018-05-01T22:37:02.898Z,9.56
2018-05-01T22:39:30.391Z,9.52
2018-05-01T22:41:57.903Z,9.50
2018-05-01T22:44:25.402Z,9.48
2018-05-01T22:46:52.906Z,9.45
2018-05-01T22:49:20.399Z,9.43
2018-05-01T22:51:47.910Z,9.43
2018-05-01T22:54:15.430Z,9.42
2018-05-01T22:56:42.930Z,9.45
2018-05-01T22:59:10.422Z,9.47
2018-05-01T23:01:37.925Z,9.51
2018-05-01T23:04:05.408Z,9.52
2018-05-01T23:06:32.909Z,9.52
2018-05-01T23:09:00.442Z,9.51
2018-05-01T23:11:28.025Z,9.51
2018-05-01T23:13:55.455Z,9.55
2018-05-01T23:16:22.949Z,9.55
2018-05-01T23:18:50.446Z,9.49
2018-05-01T23:21:17.952Z,9.46
2018-05-01T23:23:45.435Z,9.41
2018-05-01T23:26:12.945Z,9.37
2018-05-01T23:28:40.444Z,9.33
2018-05-01T23:31:07.941Z,9.28
2018-05-01T23:33:35.447Z,9.13
2018-05-01T23:36:02.939Z,9.12
2018-05-01T23:38:30.513Z,9.09
2018-05-01T23:40:57.941Z,9.03
2018-05-01T23:43:26.274Z,8.99
2018-05-01T23:45:53.783Z,8.95
2018-05-01T23:48:21.295Z,8.92
2018-05-01T23:50:48.781Z,8.90
2018-05-01T23:53:16.302Z,8.87
2018-05-01T23:55:43.781Z,8.84
2018-05-01T23:58:11.281Z,9.05
